sensor_id;sensor_type;location;lat;lon;timestamp;pressure;altitude;pressure_sealevel;temperature;humidity
30618;BME280;17384;51.214;9.202;2023-05-01T00:01:44;98990.69;;;2.66;84.03
30618;BME280;17384;51.214;9.202;2023-05-01T00:04:10;98990.69;;;2.66;84.10
30618;BME280;17384;51.214;9.202;2023-05-01T00:06:37;98983.66;;;2.65;83.85
30618;BME280;17384;51.214;9.202;2023-05-01T00:09:04;98988.16;;;2.64;83.81
30618;BME280;17384;51.214;9.202;2023-05-01T00:11:31;98984.66;;;2.64;83.64
30618;BME280;17384;51.214;9.202;2023-05-01T00:13:59;98970.91;;;2.59;83.68
30618;BME280;17384;51.214;9.202;2023-05-01T00:16:26;98965.84;;;2.56;83.71
30618;BME280;17384;51.214;9.202;2023-05-01T00:18:52;98964.19;;;2.55;83.90
30618;BME280;17384;51.214;9.202;2023-05-01T00:21:19;98974.38;;;2.51;83.90
30618;BME280;17384;51.214;9.202;2023-05-01T00:23:46;98976.88;;;2.53;84.34
30618;BME280;17384;51.214;9.202;2023-05-01T00:26:12;98961.13;;;2.42;84.74
30618;BME280;17384;51.214;9.202;2023-05-01T00:28:39;98960.44;;;2.40;85.01
30618;BME280;17384;51.214;9.202;2023-05-01T00:31:05;98961.13;;;2.42;85.39
30618;BME280;17384;51.214;9.202;2023-05-01T00:33:32;98966.63;;;2.40;85.48
30618;BME280;17384;51.214;9.202;2023-05-01T00:35:59;98953.56;;;2.37;85.47
30618;BME280;17384;51.214;9.202;2023-05-01T00:38:25;98962.75;;;2.34;85.63
30618;BME280;17384;51.214;9.202;2023-05-01T00:40:52;98958.91;;;2.37;85.77
30618;BME280;17384;51.214;9.202;2023-05-01T00:43:18;98950.69;;;2.30;86.07
30618;BME280;17384;51.214;9.202;2023-05-01T00:45:45;98958.22;;;2.35;86.21
30618;BME280;17384;51.214;9.202;2023-05-01T00:48:11;98949.00;;;2.29;86.28
30618;BME280;17384;51.214;9.202;2023-05-01T00:50:38;98940.19;;;2.37;85.80
30618;BME280;17384;51.214;9.202;2023-05-01T00:53:04;98945.84;;;2.34;85.70
30618;BME280;17384;51.214;9.202;2023-05-01T00:55:31;98930.78;;;2.33;85.48
30618;BME280;17384;51.214;9.202;2023-05-01T00:57:59;98934.47;;;2.32;85.46
30618;BME280;17384;51.214;9.202;2023-05-01T01:00:26;98922.22;;;2.29;85.95
30618;BME280;17384;51.214;9.202;2023-05-01T01:02:53;98919.22;;;2.32;85.36
30618;BME280;17384;51.214;9.202;2023-05-01T01:05:24;98910.31;;;2.24;85.34
30618;BME280;17384;51.214;9.202;2023-05-01T01:08:27;98921.84;;;2.16;85.77
30618;BME280;17384;51.214;9.202;2023-05-01T01:16:40;98905.06;;;2.06;86.25
30618;BME280;17384;51.214;9.202;2023-05-01T01:22:05;98890.53;;;2.09;86.46
30618;BME280;17384;51.214;9.202;2023-05-01T01:24:56;98897.88;;;2.07;86.37
30618;BME280;17384;51.214;9.202;2023-05-01T01:35:37;98900.03;;;2.03;86.95
30618;BME280;17384;51.214;9.202;2023-05-01T01:38:16;98886.78;;;2.01;87.35
30618;BME280;17384;51.214;9.202;2023-05-01T01:41:05;98883.34;;;2.09;87.54
30618;BME280;17384;51.214;9.202;2023-05-01T01:43:38;98877.97;;;2.09;87.45
30618;BME280;17384;51.214;9.202;2023-05-01T01:46:07;98867.44;;;2.08;87.54
30618;BME280;17384;51.214;9.202;2023-05-01T01:48:39;98861.25;;;2.07;87.60
30618;BME280;17384;51.214;9.202;2023-05-01T01:51:15;98858.25;;;2.10;87.54
30618;BME280;17384;51.214;9.202;2023-05-01T01:53:46;98861.41;;;2.06;87.08
30618;BME280;17384;51.214;9.202;2023-05-01T01:56:14;98856.38;;;2.02;87.00
30618;BME280;17384;51.214;9.202;2023-05-01T01:58:43;98858.88;;;2.04;86.96
30618;BME280;17384;51.214;9.202;2023-05-01T02:01:12;98867.06;;;2.02;86.70
30618;BME280;17384;51.214;9.202;2023-05-01T02:03:40;98843.25;;;1.83;86.86
30618;BME280;17384;51.214;9.202;2023-05-01T02:06:09;98854.03;;;1.74;87.42
30618;BME280;17384;51.214;9.202;2023-05-01T02:08:38;98844.03;;;1.76;87.57
30618;BME280;17384;51.214;9.202;2023-05-01T02:11:07;98842.34;;;1.75;87.58
30618;BME280;17384;51.214;9.202;2023-05-01T02:13:35;98844.56;;;1.79;87.62
30618;BME280;17384;51.214;9.202;2023-05-01T02:16:04;98835.53;;;1.80;87.67
30618;BME280;17384;51.214;9.202;2023-05-01T02:18:31;98824.69;;;1.82;87.90
30618;BME280;17384;51.214;9.202;2023-05-01T02:21:01;98831.50;;;1.76;88.11
30618;BME280;17384;51.214;9.202;2023-05-01T02:23:28;98825.97;;;1.78;88.38
30618;BME280;17384;51.214;9.202;2023-05-01T02:25:59;98820.31;;;1.81;88.35
30618;BME280;17384;51.214;9.202;2023-05-01T02:28:29;98821.59;;;1.68;88.08
30618;BME280;17384;51.214;9.202;2023-05-01T02:30:55;98828.28;;;1.73;88.17
30618;BME280;17384;51.214;9.202;2023-05-01T02:33:22;98814.75;;;1.74;88.07
30618;BME280;17384;51.214;9.202;2023-05-01T02:35:49;98820.94;;;1.75;88.19
30618;BME280;17384;51.214;9.202;2023-05-01T02:38:16;98817.75;;;1.71;88.22
30618;BME280;17384;51.214;9.202;2023-05-01T02:40:46;98817.44;;;1.74;88.64
30618;BME280;17384;51.214;9.202;2023-05-01T02:43:18;98815.28;;;1.78;88.62
30618;BME280;17384;51.214;9.202;2023-05-01T02:45:46;98808.63;;;1.82;88.51
30618;BME280;17384;51.214;9.202;2023-05-01T02:48:16;98802.28;;;1.83;88.23
30618;BME280;17384;51.214;9.202;2023-05-01T02:50:45;98802.59;;;1.80;88.08
30618;BME280;17384;51.214;9.202;2023-05-01T02:53:15;98801.91;;;1.78;88.08
30618;BME280;17384;51.214;9.202;2023-05-01T02:55:42;98805.44;;;1.78;88.21
30618;BME280;17384;51.214;9.202;2023-05-01T02:58:14;98798.56;;;1.76;88.08
30618;BME280;17384;51.214;9.202;2023-05-01T03:00:40;98795.22;;;1.74;88.21
30618;BME280;17384;51.214;9.202;2023-05-01T03:03:07;98783.84;;;1.72;87.96
30618;BME280;17384;51.214;9.202;2023-05-01T03:05:34;98778.97;;;1.67;88.01
30618;BME280;17384;51.214;9.202;2023-05-01T03:08:01;98796.69;;;1.68;88.24
30618;BME280;17384;51.214;9.202;2023-05-01T03:10:27;98796.19;;;1.73;88.13
30618;BME280;17384;51.214;9.202;2023-05-01T03:12:53;98783.81;;;1.63;87.92
30618;BME280;17384;51.214;9.202;2023-05-01T03:15:20;98787.47;;;1.62;88.38
30618;BME280;17384;51.214;9.202;2023-05-01T03:17:46;98775.59;;;1.57;88.51
30618;BME280;17384;51.214;9.202;2023-05-01T03:20:13;98773.59;;;1.59;88.63
30618;BME280;17384;51.214;9.202;2023-05-01T03:22:39;98785.13;;;1.59;88.61
30618;BME280;17384;51.214;9.202;2023-05-01T03:25:06;98771.06;;;1.57;88.70
30618;BME280;17384;51.214;9.202;2023-05-01T03:27:34;98773.06;;;1.55;88.69
30618;BME280;17384;51.214;9.202;2023-05-01T03:30:00;98771.69;;;1.51;88.75
30618;BME280;17384;51.214;9.202;2023-05-01T03:32:27;98769.88;;;1.52;88.87
30618;BME280;17384;51.214;9.202;2023-05-01T03:34:54;98773.44;;;1.60;89.46
30618;BME280;17384;51.214;9.202;2023-05-01T03:37:20;98767.09;;;1.61;89.45
30618;BME280;17384;51.214;9.202;2023-05-01T03:39:46;98762.06;;;1.58;89.27
30618;BME280;17384;51.214;9.202;2023-05-01T03:42:13;98745.19;;;1.58;89.18
30618;BME280;17384;51.214;9.202;2023-05-01T03:44:39;98767.03;;;1.53;89.22
30618;BME280;17384;51.214;9.202;2023-05-01T03:47:06;98747.50;;;1.53;89.68
30618;BME280;17384;51.214;9.202;2023-05-01T03:49:32;98758.69;;;1.56;89.09
30618;BME280;17384;51.214;9.202;2023-05-01T03:51:58;98757.03;;;1.55;89.00
30618;BME280;17384;51.214;9.202;2023-05-01T03:54:25;98763.22;;;1.56;88.95
30618;BME280;17384;51.214;9.202;2023-05-01T03:56:51;98746.84;;;1.59;88.45
30618;BME280;17384;51.214;9.202;2023-05-01T03:59:18;98767.41;;;1.58;88.65
30618;BME280;17384;51.214;9.202;2023-05-01T04:01:44;98759.53;;;1.57;88.53
30618;BME280;17384;51.214;9.202;2023-05-01T04:04:11;98745.50;;;1.55;88.42
30618;BME280;17384;51.214;9.202;2023-05-01T04:06:38;98741.97;;;1.54;88.43
30618;BME280;17384;51.214;9.202;2023-05-01T04:09:05;98747.00;;;1.57;88.35
30618;BME280;17384;51.214;9.202;2023-05-01T04:11:31;98745.19;;;1.58;88.37
30618;BME280;17384;51.214;9.202;2023-05-01T04:13:58;98746.19;;;1.57;88.24
30618;BME280;17384;51.214;9.202;2023-05-01T04:16:24;98746.84;;;1.59;88.41
30618;BME280;17384;51.214;9.202;2023-05-01T04:18:51;98753.03;;;1.59;88.44
30618;BME280;17384;51.214;9.202;2023-05-01T04:21:17;98748.22;;;1.63;88.17
30618;BME280;17384;51.214;9.202;2023-05-01T04:23:44;98754.41;;;1.63;88.02
30618;BME280;17384;51.214;9.202;2023-05-01T04:26:10;98752.38;;;1.65;88.20
30618;BME280;17384;51.214;9.202;2023-05-01T04:28:36;98749.38;;;1.68;88.48
30618;BME280;17384;51.214;9.202;2023-05-01T04:31:03;98752.06;;;1.68;88.62
30618;BME280;17384;51.214;9.202;2023-05-01T04:33:29;98751.22;;;1.68;88.89
30618;BME280;17384;51.214;9.202;2023-05-01T04:35:56;98754.78;;;1.77;88.81
30618;BME280;17384;51.214;9.202;2023-05-01T04:38:22;98747.31;;;1.88;88.87
30618;BME280;17384;51.214;9.202;2023-05-01T04:40:49;98744.13;;;1.93;88.71
30618;BME280;17384;51.214;9.202;2023-05-01T04:43:15;98755.84;;;2.00;88.56
30618;BME280;17384;51.214;9.202;2023-05-01T04:45:41;98747.03;;;2.08;88.66
30618;BME280;17384;51.214;9.202;2023-05-01T04:48:08;98747.38;;;2.13;88.47
30618;BME280;17384;51.214;9.202;2023-05-01T04:50:34;98748.22;;;2.21;88.50
30618;BME280;17384;51.214;9.202;2023-05-01T04:53:00;98758.28;;;2.27;88.62
30618;BME280;17384;51.214;9.202;2023-05-01T04:55:27;98751.28;;;2.34;88.91
30618;BME280;17384;51.214;9.202;2023-05-01T04:57:53;98745.25;;;2.49;89.14
30618;BME280;17384;51.214;9.202;2023-05-01T05:00:19;98762.34;;;2.64;88.91
30618;BME280;17384;51.214;9.202;2023-05-01T05:02:46;98760.00;;;2.77;88.88
30618;BME280;17384;51.214;9.202;2023-05-01T05:05:12;98740.59;;;2.83;88.44
30618;BME280;17384;51.214;9.202;2023-05-01T05:07:39;98755.31;;;2.87;87.89
30618;BME280;17384;51.214;9.202;2023-05-01T05:10:06;98749.13;;;2.95;87.77
30618;BME280;17384;51.214;9.202;2023-05-01T05:12:32;98746.44;;;3.03;87.49
30618;BME280;17384;51.214;9.202;2023-05-01T05:14:58;98752.97;;;3.09;87.46
30618;BME280;17384;51.214;9.202;2023-05-01T05:17:25;98752.28;;;3.15;87.23
30618;BME280;17384;51.214;9.202;2023-05-01T05:19:51;98740.91;;;3.21;87.52
30618;BME280;17384;51.214;9.202;2023-05-01T05:22:18;98749.91;;;3.36;87.49
30618;BME280;17384;51.214;9.202;2023-05-01T05:24:45;98740.66;;;3.47;87.38
30618;BME280;17384;51.214;9.202;2023-05-01T05:27:11;98747.31;;;3.59;87.50
30618;BME280;17384;51.214;9.202;2023-05-01T05:29:38;98729.03;;;3.70;86.94
30618;BME280;17384;51.214;9.202;2023-05-01T05:32:04;98736.16;;;3.86;86.72
30618;BME280;17384;51.214;9.202;2023-05-01T05:34:31;98744.31;;;4.01;86.35
30618;BME280;17384;51.214;9.202;2023-05-01T05:36:57;98728.09;;;4.17;85.90
30618;BME280;17384;51.214;9.202;2023-05-01T05:39:24;98731.00;;;4.38;85.36
30618;BME280;17384;51.214;9.202;2023-05-01T05:41:50;98733.41;;;4.56;84.55
30618;BME280;17384;51.214;9.202;2023-05-01T05:44:18;98722.09;;;4.84;82.62
30618;BME280;17384;51.214;9.202;2023-05-01T05:46:45;98727.81;;;5.03;83.89
30618;BME280;17384;51.214;9.202;2023-05-01T05:49:12;98713.09;;;5.14;84.34
30618;BME280;17384;51.214;9.202;2023-05-01T05:51:38;98734.63;;;5.29;84.41
30618;BME280;17384;51.214;9.202;2023-05-01T05:54:05;98720.63;;;5.48;80.09
30618;BME280;17384;51.214;9.202;2023-05-01T05:56:31;98713.69;;;5.68;77.53
30618;BME280;17384;51.214;9.202;2023-05-01T05:58:58;98731.09;;;5.87;75.76
30618;BME280;17384;51.214;9.202;2023-05-01T06:01:28;98725.63;;;6.10;75.19
30618;BME280;17384;51.214;9.202;2023-05-01T06:03:54;98712.06;;;6.39;75.37
30618;BME280;17384;51.214;9.202;2023-05-01T06:06:23;98713.44;;;6.71;74.10
30618;BME280;17384;51.214;9.202;2023-05-01T06:08:53;98716.63;;;7.03;70.02
30618;BME280;17384;51.214;9.202;2023-05-01T06:11:19;98732.44;;;7.34;71.41
30618;BME280;17384;51.214;9.202;2023-05-01T06:13:46;98720.56;;;7.63;70.53
30618;BME280;17384;51.214;9.202;2023-05-01T06:16:13;98726.72;;;7.85;68.40
30618;BME280;17384;51.214;9.202;2023-05-01T06:18:40;98715.75;;;7.93;67.17
30618;BME280;17384;51.214;9.202;2023-05-01T06:21:07;98724.56;;;8.21;65.98
30618;BME280;17384;51.214;9.202;2023-05-01T06:23:33;98710.75;;;8.51;64.68
30618;BME280;17384;51.214;9.202;2023-05-01T06:25:59;98703.53;;;8.71;64.03
30618;BME280;17384;51.214;9.202;2023-05-01T06:28:26;98706.91;;;8.99;63.27
30618;BME280;17384;51.214;9.202;2023-05-01T06:30:52;98707.50;;;9.34;62.41
30618;BME280;17384;51.214;9.202;2023-05-01T06:33:24;98716.41;;;9.68;62.85
30618;BME280;17384;51.214;9.202;2023-05-01T06:35:51;98701.50;;;9.97;61.20
30618;BME280;17384;51.214;9.202;2023-05-01T06:38:19;98697.25;;;10.14;58.46
30618;BME280;17384;51.214;9.202;2023-05-01T06:40:48;98705.63;;;10.19;57.66
30618;BME280;17384;51.214;9.202;2023-05-01T06:43:14;98708.38;;;10.50;56.74
30618;BME280;17384;51.214;9.202;2023-05-01T06:45:41;98707.38;;;10.45;55.47
30618;BME280;17384;51.214;9.202;2023-05-01T06:48:07;98703.03;;;10.69;55.01
30618;BME280;17384;51.214;9.202;2023-05-01T06:50:34;98710.94;;;10.77;53.49
30618;BME280;17384;51.214;9.202;2023-05-01T06:53:00;98709.44;;;10.81;54.47
30618;BME280;17384;51.214;9.202;2023-05-01T06:55:28;98716.13;;;11.10;52.67
30618;BME280;17384;51.214;9.202;2023-05-01T06:57:57;98715.91;;;11.11;53.30
30618;BME280;17384;51.214;9.202;2023-05-01T07:00:24;98711.53;;;10.47;52.35
30618;BME280;17384;51.214;9.202;2023-05-01T07:02:50;98714.38;;;10.66;53.06
30618;BME280;17384;51.214;9.202;2023-05-01T07:05:17;98701.28;;;10.88;54.58
30618;BME280;17384;51.214;9.202;2023-05-01T07:07:43;98703.38;;;10.85;52.66
30618;BME280;17384;51.214;9.202;2023-05-01T07:10:09;98710.41;;;11.43;54.64
30618;BME280;17384;51.214;9.202;2023-05-01T07:12:36;98705.63;;;11.63;50.78
30618;BME280;17384;51.214;9.202;2023-05-01T07:15:03;98698.97;;;11.59;51.82
30618;BME280;17384;51.214;9.202;2023-05-01T07:17:29;98701.56;;;11.72;51.38
30618;BME280;17384;51.214;9.202;2023-05-01T07:19:56;98700.00;;;11.83;50.31
30618;BME280;17384;51.214;9.202;2023-05-01T07:22:22;98698.53;;;11.62;50.57
30618;BME280;17384;51.214;9.202;2023-05-01T07:24:48;98699.13;;;11.46;50.89
30618;BME280;17384;51.214;9.202;2023-05-01T07:27:15;98697.22;;;11.22;50.67
30618;BME280;17384;51.214;9.202;2023-05-01T07:29:41;98706.53;;;11.07;51.44
30618;BME280;17384;51.214;9.202;2023-05-01T07:32:07;98703.13;;;11.62;51.76
30618;BME280;17384;51.214;9.202;2023-05-01T07:34:34;98687.31;;;11.52;52.22
30618;BME280;17384;51.214;9.202;2023-05-01T07:37:00;98698.53;;;11.62;50.82
30618;BME280;17384;51.214;9.202;2023-05-01T07:39:27;98698.94;;;12.02;49.50
30618;BME280;17384;51.214;9.202;2023-05-01T07:41:55;98688.34;;;12.12;49.69
30618;BME280;17384;51.214;9.202;2023-05-01T07:44:22;98669.09;;;12.74;48.54
30618;BME280;17384;51.214;9.202;2023-05-01T07:46:48;98675.50;;;12.91;48.52
30618;BME280;17384;51.214;9.202;2023-05-01T07:49:15;98671.16;;;13.02;47.46
30618;BME280;17384;51.214;9.202;2023-05-01T07:51:43;98672.97;;;13.19;48.75
30618;BME280;17384;51.214;9.202;2023-05-01T07:54:10;98664.56;;;13.21;47.27
30618;BME280;17384;51.214;9.202;2023-05-01T07:56:36;98668.38;;;13.32;47.63
30618;BME280;17384;51.214;9.202;2023-05-01T07:59:03;98671.13;;;13.32;47.96
30618;BME280;17384;51.214;9.202;2023-05-01T08:01:29;98669.97;;;12.98;48.98
30618;BME280;17384;51.214;9.202;2023-05-01T08:03:55;98664.81;;;13.66;47.80
30618;BME280;17384;51.214;9.202;2023-05-01T08:06:21;98660.50;;;13.94;45.36
30618;BME280;17384;51.214;9.202;2023-05-01T08:08:48;98663.25;;;13.82;46.27
30618;BME280;17384;51.214;9.202;2023-05-01T08:11:14;98655.66;;;13.72;46.76
30618;BME280;17384;51.214;9.202;2023-05-01T08:13:41;98649.25;;;13.78;46.50
30618;BME280;17384;51.214;9.202;2023-05-01T08:16:07;98663.25;;;13.94;45.89
30618;BME280;17384;51.214;9.202;2023-05-01T08:18:34;98659.97;;;13.57;49.04
30618;BME280;17384;51.214;9.202;2023-05-01T08:21:00;98659.84;;;13.28;48.22
30618;BME280;17384;51.214;9.202;2023-05-01T08:23:26;98660.81;;;13.34;48.55
30618;BME280;17384;51.214;9.202;2023-05-01T08:25:53;98650.50;;;13.59;48.04
30618;BME280;17384;51.214;9.202;2023-05-01T08:28:21;98652.84;;;13.67;48.51
30618;BME280;17384;51.214;9.202;2023-05-01T08:30:48;98646.41;;;13.85;49.07
30618;BME280;17384;51.214;9.202;2023-05-01T08:33:14;98644.28;;;13.75;50.32
30618;BME280;17384;51.214;9.202;2023-05-01T08:35:41;98645.06;;;13.36;48.91
30618;BME280;17384;51.214;9.202;2023-05-01T08:38:07;98648.25;;;13.33;48.73
30618;BME280;17384;51.214;9.202;2023-05-01T08:40:36;98637.69;;;13.60;47.94
30618;BME280;17384;51.214;9.202;2023-05-01T08:43:05;98644.75;;;14.24;46.54
30618;BME280;17384;51.214;9.202;2023-05-01T08:45:33;98647.81;;;14.28;47.15
30618;BME280;17384;51.214;9.202;2023-05-01T08:48:04;98638.28;;;14.70;46.00
30618;BME280;17384;51.214;9.202;2023-05-01T08:50:35;98649.91;;;14.94;45.37
30618;BME280;17384;51.214;9.202;2023-05-01T08:53:02;98646.19;;;15.00;45.38
30618;BME280;17384;51.214;9.202;2023-05-01T08:55:30;98639.75;;;15.45;42.91
30618;BME280;17384;51.214;9.202;2023-05-01T08:57:57;98632.78;;;15.71;42.43
30618;BME280;17384;51.214;9.202;2023-05-01T09:00:24;98636.03;;;15.89;43.20
30618;BME280;17384;51.214;9.202;2023-05-01T09:02:51;98633.00;;;16.08;42.56
30618;BME280;17384;51.214;9.202;2023-05-01T09:05:19;98627.59;;;16.13;43.66
30618;BME280;17384;51.214;9.202;2023-05-01T09:07:47;98616.56;;;16.83;42.47
30618;BME280;17384;51.214;9.202;2023-05-01T09:10:17;98618.69;;;17.08;41.82
30618;BME280;17384;51.214;9.202;2023-05-01T09:12:46;98618.13;;;17.06;42.35
30618;BME280;17384;51.214;9.202;2023-05-01T09:15:17;98620.78;;;17.70;41.20
30618;BME280;17384;51.214;9.202;2023-05-01T09:17:43;98614.06;;;17.56;40.06
30618;BME280;17384;51.214;9.202;2023-05-01T09:20:10;98609.59;;;17.40;41.17
30618;BME280;17384;51.214;9.202;2023-05-01T09:22:37;98620.69;;;17.60;40.12
30618;BME280;17384;51.214;9.202;2023-05-01T09:25:06;98605.28;;;17.49;39.70
30618;BME280;17384;51.214;9.202;2023-05-01T09:27:36;98607.50;;;18.04;40.69
30618;BME280;17384;51.214;9.202;2023-05-01T09:30:04;98611.25;;;17.41;42.27
30618;BME280;17384;51.214;9.202;2023-05-01T09:32:32;98606.47;;;18.25;38.68
30618;BME280;17384;51.214;9.202;2023-05-01T09:35:10;98601.53;;;18.27;38.44
30618;BME280;17384;51.214;9.202;2023-05-01T09:37:37;98607.81;;;18.18;39.80
30618;BME280;17384;51.214;9.202;2023-05-01T09:40:12;98602.56;;;17.59;40.94
30618;BME280;17384;51.214;9.202;2023-05-01T09:42:49;98600.03;;;17.95;40.15
30618;BME280;17384;51.214;9.202;2023-05-01T09:45:17;98595.19;;;18.17;40.06
30618;BME280;17384;51.214;9.202;2023-05-01T09:47:48;98592.22;;;18.39;41.37
30618;BME280;17384;51.214;9.202;2023-05-01T09:50:29;98587.06;;;18.57;40.15
30618;BME280;17384;51.214;9.202;2023-05-01T09:52:56;98590.38;;;18.70;40.70
30618;BME280;17384;51.214;9.202;2023-05-01T09:55:22;98598.38;;;18.86;40.31
30618;BME280;17384;51.214;9.202;2023-05-01T09:57:49;98587.19;;;18.05;38.83
30618;BME280;17384;51.214;9.202;2023-05-01T10:00:16;98583.16;;;17.66;40.78
30618;BME280;17384;51.214;9.202;2023-05-01T10:02:47;98587.59;;;17.72;39.95
30618;BME280;17384;51.214;9.202;2023-05-01T10:05:14;98586.81;;;17.76;42.03
30618;BME280;17384;51.214;9.202;2023-05-01T10:08:01;98579.22;;;18.04;40.52
30618;BME280;17384;51.214;9.202;2023-05-01T10:10:28;98579.56;;;18.38;39.18
30618;BME280;17384;51.214;9.202;2023-05-01T10:12:54;98574.44;;;19.02;39.54
30618;BME280;17384;51.214;9.202;2023-05-01T10:15:21;98580.59;;;19.89;39.33
30618;BME280;17384;51.214;9.202;2023-05-01T10:17:49;98566.16;;;19.17;39.12
30618;BME280;17384;51.214;9.202;2023-05-01T10:20:17;98564.53;;;18.71;38.74
30618;BME280;17384;51.214;9.202;2023-05-01T10:22:43;98560.09;;;19.31;38.94
30618;BME280;17384;51.214;9.202;2023-05-01T10:25:12;98561.69;;;19.67;39.07
30618;BME280;17384;51.214;9.202;2023-05-01T10:27:40;98555.28;;;19.87;36.19
30618;BME280;17384;51.214;9.202;2023-05-01T10:30:08;98559.13;;;19.86;38.85
30618;BME280;17384;51.214;9.202;2023-05-01T10:32:36;98553.75;;;20.20;37.13
30618;BME280;17384;51.214;9.202;2023-05-01T10:35:08;98563.97;;;19.24;37.64
30618;BME280;17384;51.214;9.202;2023-05-01T10:38:11;98560.69;;;19.07;37.28
30618;BME280;17384;51.214;9.202;2023-05-01T10:43:13;98549.03;;;19.66;37.39
30618;BME280;17384;51.214;9.202;2023-05-01T10:45:45;98553.34;;;19.92;38.89
30618;BME280;17384;51.214;9.202;2023-05-01T10:51:26;98545.38;;;19.86;39.97
30618;BME280;17384;51.214;9.202;2023-05-01T10:59:04;98540.28;;;18.22;41.15
30618;BME280;17384;51.214;9.202;2023-05-01T11:01:37;98533.28;;;17.84;42.63
30618;BME280;17384;51.214;9.202;2023-05-01T11:09:54;98527.38;;;18.27;39.96
30618;BME280;17384;51.214;9.202;2023-05-01T11:15:09;98524.94;;;18.56;42.44
30618;BME280;17384;51.214;9.202;2023-05-01T11:20:11;98532.81;;;19.44;40.13
30618;BME280;17384;51.214;9.202;2023-05-01T11:22:39;98517.69;;;19.47;39.20
30618;BME280;17384;51.214;9.202;2023-05-01T11:25:21;98516.94;;;18.40;40.15
30618;BME280;17384;51.214;9.202;2023-05-01T11:27:53;98523.56;;;19.05;40.63
30618;BME280;17384;51.214;9.202;2023-05-01T11:30:20;98514.22;;;19.06;40.76
30618;BME280;17384;51.214;9.202;2023-05-01T11:32:47;98520.56;;;19.01;39.16
30618;BME280;17384;51.214;9.202;2023-05-01T11:35:20;98507.81;;;19.51;37.88
30618;BME280;17384;51.214;9.202;2023-05-01T11:37:47;98509.22;;;19.98;37.94
30618;BME280;17384;51.214;9.202;2023-05-01T11:45:43;98503.13;;;20.06;37.24
30618;BME280;17384;51.214;9.202;2023-05-01T11:48:20;98495.72;;;20.01;38.13
30618;BME280;17384;51.214;9.202;2023-05-01T11:50:46;98490.66;;;20.23;37.81
30618;BME280;17384;51.214;9.202;2023-05-01T11:53:13;98499.38;;;19.91;37.96
30618;BME280;17384;51.214;9.202;2023-05-01T11:55:43;98496.00;;;20.00;35.81
30618;BME280;17384;51.214;9.202;2023-05-01T11:58:09;98504.63;;;19.88;34.55
30618;BME280;17384;51.214;9.202;2023-05-01T12:00:39;98500.81;;;19.74;35.77
30618;BME280;17384;51.214;9.202;2023-05-01T12:03:09;98493.50;;;20.03;36.61
30618;BME280;17384;51.214;9.202;2023-05-01T12:05:36;98503.44;;;19.24;34.75
30618;BME280;17384;51.214;9.202;2023-05-01T12:08:16;98500.25;;;19.77;36.97
30618;BME280;17384;51.214;9.202;2023-05-01T12:10:52;98497.97;;;20.43;36.29
30618;BME280;17384;51.214;9.202;2023-05-01T12:13:20;98493.41;;;20.63;33.80
30618;BME280;17384;51.214;9.202;2023-05-01T12:15:48;98496.97;;;21.26;34.49
30618;BME280;17384;51.214;9.202;2023-05-01T12:18:15;98494.91;;;21.60;33.24
30618;BME280;17384;51.214;9.202;2023-05-01T12:20:46;98495.00;;;22.17;33.73
30618;BME280;17384;51.214;9.202;2023-05-01T12:23:13;98490.59;;;21.73;32.31
30618;BME280;17384;51.214;9.202;2023-05-01T12:25:40;98483.81;;;21.42;31.78
30618;BME280;17384;51.214;9.202;2023-05-01T12:28:18;98473.25;;;21.25;33.27
30618;BME280;17384;51.214;9.202;2023-05-01T12:30:46;98474.22;;;21.34;32.41
30618;BME280;17384;51.214;9.202;2023-05-01T12:33:15;98482.75;;;20.80;35.25
30618;BME280;17384;51.214;9.202;2023-05-01T12:35:44;98478.84;;;20.18;36.87
30618;BME280;17384;51.214;9.202;2023-05-01T12:38:18;98468.56;;;19.84;38.70
30618;BME280;17384;51.214;9.202;2023-05-01T12:40:54;98466.22;;;20.07;36.33
30618;BME280;17384;51.214;9.202;2023-05-01T12:43:31;98466.22;;;20.07;34.39
30618;BME280;17384;51.214;9.202;2023-05-01T12:45:57;98458.16;;;19.76;37.96
30618;BME280;17384;51.214;9.202;2023-05-01T12:48:23;98466.28;;;19.37;37.77
30618;BME280;17384;51.214;9.202;2023-05-01T12:50:49;98468.31;;;18.91;38.87
30618;BME280;17384;51.214;9.202;2023-05-01T12:53:22;98461.91;;;19.26;39.04
30618;BME280;17384;51.214;9.202;2023-05-01T12:55:50;98460.94;;;18.76;38.23
30618;BME280;17384;51.214;9.202;2023-05-01T12:58:16;98451.59;;;18.57;38.21
30618;BME280;17384;51.214;9.202;2023-05-01T13:00:50;98463.66;;;18.36;39.31
30618;BME280;17384;51.214;9.202;2023-05-01T13:03:21;98461.72;;;19.07;37.57
30618;BME280;17384;51.214;9.202;2023-05-01T13:05:52;98450.34;;;19.29;35.90
30618;BME280;17384;51.214;9.202;2023-05-01T13:08:47;98462.81;;;19.11;37.07
30618;BME280;17384;51.214;9.202;2023-05-01T13:11:14;98455.03;;;19.34;39.72
30618;BME280;17384;51.214;9.202;2023-05-01T13:13:44;98451.16;;;19.35;38.06
30618;BME280;17384;51.214;9.202;2023-05-01T13:16:14;98446.91;;;18.68;37.00
30618;BME280;17384;51.214;9.202;2023-05-01T13:18:50;98449.13;;;18.55;38.17
30618;BME280;17384;51.214;9.202;2023-05-01T13:21:22;98449.66;;;18.52;38.26
30618;BME280;17384;51.214;9.202;2023-05-01T13:23:52;98442.25;;;18.73;38.90
30618;BME280;17384;51.214;9.202;2023-05-01T13:26:24;98446.91;;;18.73;36.89
30618;BME280;17384;51.214;9.202;2023-05-01T13:28:50;98449.50;;;19.39;36.15
30618;BME280;17384;51.214;9.202;2023-05-01T13:31:15;98447.59;;;19.34;38.03
30618;BME280;17384;51.214;9.202;2023-05-01T13:33:41;98458.81;;;19.48;36.47
30618;BME280;17384;51.214;9.202;2023-05-01T13:36:11;98448.97;;;19.37;35.31
30618;BME280;17384;51.214;9.202;2023-05-01T13:38:45;98451.09;;;19.45;34.86
30618;BME280;17384;51.214;9.202;2023-05-01T13:41:19;98444.56;;;19.31;34.90
30618;BME280;17384;51.214;9.202;2023-05-01T13:43:49;98443.84;;;18.89;34.59
30618;BME280;17384;51.214;9.202;2023-05-01T13:46:16;98436.03;;;19.32;35.61
30618;BME280;17384;51.214;9.202;2023-05-01T13:48:43;98444.97;;;18.88;35.04
30618;BME280;17384;51.214;9.202;2023-05-01T13:51:09;98435.84;;;19.13;35.23
30618;BME280;17384;51.214;9.202;2023-05-01T13:53:37;98456.25;;;18.62;35.13
30618;BME280;17384;51.214;9.202;2023-05-01T13:56:04;98450.72;;;18.92;36.33